sensor_id;sensor_type;location;lat;lon;timestamp;P1;durP1;ratioP1;P2;durP2;ratioP2
46931;SDS011;32670;51.464;11.964;2024-01-30T00:02:16;2.53;;;2.27;;
46931;SDS011;32670;51.464;11.964;2024-01-30T00:04:42;3.40;;;2.60;;
46931;SDS011;32670;51.464;11.964;2024-01-30T00:07:07;5.47;;;3.13;;
46931;SDS011;32670;51.464;11.964;2024-01-30T00:09:33;4.87;;;3.10;;
46931;SDS011;32670;51.464;11.964;2024-01-30T00:11:58;3.83;;;2.80;;
46931;SDS011;32670;51.464;11.964;2024-01-30T00:14:24;6.20;;;2.87;;
46931;SDS011;32670;51.464;11.964;2024-01-30T00:16:50;3.43;;;2.50;;
46931;SDS011;32670;51.464;11.964;2024-01-30T00:19:16;4.27;;;2.80;;
46931;SDS011;32670;51.464;11.964;2024-01-30T00:21:42;4.70;;;2.80;;
46931;SDS011;32670;51.464;11.964;2024-01-30T00:24:08;4.40;;;2.90;;
46931;SDS011;32670;51.464;11.964;2024-01-30T00:26:33;4.23;;;2.93;;
46931;SDS011;32670;51.464;11.964;2024-01-30T00:28:59;5.47;;;3.00;;
46931;SDS011;32670;51.464;11.964;2024-01-30T00:31:24;5.33;;;2.90;;
46931;SDS011;32670;51.464;11.964;2024-01-30T00:33:50;2.90;;;2.60;;
46931;SDS011;32670;51.464;11.964;2024-01-30T00:36:15;5.10;;;2.70;;
46931;SDS011;32670;51.464;11.964;2024-01-30T00:38:41;6.57;;;2.80;;
46931;SDS011;32670;51.464;11.964;2024-01-30T00:41:07;3.40;;;2.57;;
46931;SDS011;32670;51.464;11.964;2024-01-30T00:43:33;4.93;;;2.57;;
46931;SDS011;32670;51.464;11.964;2024-01-30T00:45:58;2.83;;;2.40;;
46931;SDS011;32670;51.464;11.964;2024-01-30T00:48:24;3.93;;;2.47;;
46931;SDS011;32670;51.464;11.964;2024-01-30T00:50:50;3.73;;;2.63;;
46931;SDS011;32670;51.464;11.964;2024-01-30T00:53:15;3.73;;;2.93;;
46931;SDS011;32670;51.464;11.964;2024-01-30T00:55:41;4.93;;;2.70;;
46931;SDS011;32670;51.464;11.964;2024-01-30T00:58:06;4.27;;;2.63;;
46931;SDS011;32670;51.464;11.964;2024-01-30T01:00:32;4.07;;;2.37;;
46931;SDS011;32670;51.464;11.964;2024-01-30T01:02:58;3.47;;;2.90;;
46931;SDS011;32670;51.464;11.964;2024-01-30T01:05:24;2.80;;;2.40;;
46931;SDS011;32670;51.464;11.964;2024-01-30T01:07:49;3.23;;;2.70;;
46931;SDS011;32670;51.464;11.964;2024-01-30T01:10:16;3.73;;;2.73;;
46931;SDS011;32670;51.464;11.964;2024-01-30T01:12:43;3.13;;;2.50;;
46931;SDS011;32670;51.464;11.964;2024-01-30T01:15:09;3.43;;;2.50;;
46931;SDS011;32670;51.464;11.964;2024-01-30T01:17:35;5.23;;;2.80;;
46931;SDS011;32670;51.464;11.964;2024-01-30T01:20:01;3.37;;;2.27;;
46931;SDS011;32670;51.464;11.964;2024-01-30T01:22:27;3.07;;;2.70;;
46931;SDS011;32670;51.464;11.964;2024-01-30T01:24:53;4.33;;;2.80;;
46931;SDS011;32670;51.464;11.964;2024-01-30T01:27:18;2.47;;;2.20;;
46931;SDS011;32670;51.464;11.964;2024-01-30T01:29:44;3.07;;;2.73;;
46931;SDS011;32670;51.464;11.964;2024-01-30T01:32:10;2.70;;;2.50;;
46931;SDS011;32670;51.464;11.964;2024-01-30T01:34:35;3.70;;;2.63;;
46931;SDS011;32670;51.464;11.964;2024-01-30T01:37:01;2.90;;;2.27;;
46931;SDS011;32670;51.464;11.964;2024-01-30T01:39:26;2.73;;;2.40;;
46931;SDS011;32670;51.464;11.964;2024-01-30T01:41:52;4.07;;;2.30;;
46931;SDS011;32670;51.464;11.964;2024-01-30T01:44:17;2.43;;;2.23;;
46931;SDS011;32670;51.464;11.964;2024-01-30T01:46:43;4.70;;;2.40;;
46931;SDS011;32670;51.464;11.964;2024-01-30T01:49:09;4.70;;;2.33;;
46931;SDS011;32670;51.464;11.964;2024-01-30T01:51:35;2.50;;;2.30;;
46931;SDS011;32670;51.464;11.964;2024-01-30T01:54:03;3.30;;;2.30;;
46931;SDS011;32670;51.464;11.964;2024-01-30T01:56:29;2.43;;;2.20;;
46931;SDS011;32670;51.464;11.964;2024-01-30T01:58:56;3.97;;;2.30;;
46931;SDS011;32670;51.464;11.964;2024-01-30T02:01:29;5.17;;;2.60;;
46931;SDS011;32670;51.464;11.964;2024-01-30T02:03:56;2.87;;;2.33;;
46931;SDS011;32670;51.464;11.964;2024-01-30T02:06:21;4.10;;;2.77;;
46931;SDS011;32670;51.464;11.964;2024-01-30T02:08:47;2.80;;;2.53;;
46931;SDS011;32670;51.464;11.964;2024-01-30T02:11:13;3.47;;;2.20;;
46931;SDS011;32670;51.464;11.964;2024-01-30T02:13:38;2.67;;;2.30;;
46931;SDS011;32670;51.464;11.964;2024-01-30T02:16:05;5.07;;;2.30;;
46931;SDS011;32670;51.464;11.964;2024-01-30T02:18:31;4.97;;;2.23;;
46931;SDS011;32670;51.464;11.964;2024-01-30T02:20:56;4.63;;;2.63;;
46931;SDS011;32670;51.464;11.964;2024-01-30T02:23:26;3.03;;;2.63;;
46931;SDS011;32670;51.464;11.964;2024-01-30T02:25:52;7.17;;;2.30;;
46931;SDS011;32670;51.464;11.964;2024-01-30T02:28:18;3.33;;;2.43;;
46931;SDS011;32670;51.464;11.964;2024-01-30T02:30:44;5.57;;;2.87;;
46931;SDS011;32670;51.464;11.964;2024-01-30T02:33:11;4.83;;;2.70;;
46931;SDS011;32670;51.464;11.964;2024-01-30T02:35:37;10.20;;;2.80;;
46931;SDS011;32670;51.464;11.964;2024-01-30T02:38:03;4.93;;;2.30;;
46931;SDS011;32670;51.464;11.964;2024-01-30T02:40:29;3.43;;;2.60;;
46931;SDS011;32670;51.464;11.964;2024-01-30T02:42:55;5.07;;;2.40;;
46931;SDS011;32670;51.464;11.964;2024-01-30T02:45:22;3.63;;;2.53;;
46931;SDS011;32670;51.464;11.964;2024-01-30T02:47:48;2.77;;;2.57;;
46931;SDS011;32670;51.464;11.964;2024-01-30T02:50:13;3.70;;;2.40;;
46931;SDS011;32670;51.464;11.964;2024-01-30T02:52:40;4.90;;;2.23;;
46931;SDS011;32670;51.464;11.964;2024-01-30T02:55:05;2.97;;;2.10;;
46931;SDS011;32670;51.464;11.964;2024-01-30T02:57:31;3.80;;;2.53;;
46931;SDS011;32670;51.464;11.964;2024-01-30T02:59:56;2.80;;;2.33;;
46931;SDS011;32670;51.464;11.964;2024-01-30T03:02:22;4.00;;;2.73;;
46931;SDS011;32670;51.464;11.964;2024-01-30T03:04:47;3.50;;;2.33;;
46931;SDS011;32670;51.464;11.964;2024-01-30T03:07:13;2.73;;;2.23;;
46931;SDS011;32670;51.464;11.964;2024-01-30T03:09:40;2.73;;;2.40;;
46931;SDS011;32670;51.464;11.964;2024-01-30T03:12:07;2.60;;;2.40;;
46931;SDS011;32670;51.464;11.964;2024-01-30T03:14:32;2.20;;;2.00;;
46931;SDS011;32670;51.464;11.964;2024-01-30T03:16:58;2.43;;;2.23;;
46931;SDS011;32670;51.464;11.964;2024-01-30T03:19:23;2.50;;;2.30;;
46931;SDS011;32670;51.464;11.964;2024-01-30T03:21:49;3.53;;;2.40;;
46931;SDS011;32670;51.464;11.964;2024-01-30T03:24:15;2.43;;;2.23;;
46931;SDS011;32670;51.464;11.964;2024-01-30T03:26:40;2.83;;;2.23;;
46931;SDS011;32670;51.464;11.964;2024-01-30T03:29:06;3.50;;;2.33;;
46931;SDS011;32670;51.464;11.964;2024-01-30T03:31:32;4.97;;;2.50;;
46931;SDS011;32670;51.464;11.964;2024-01-30T03:33:58;3.17;;;2.43;;
46931;SDS011;32670;51.464;11.964;2024-01-30T03:36:23;4.40;;;2.67;;
46931;SDS011;32670;51.464;11.964;2024-01-30T03:38:49;9.83;;;2.57;;
46931;SDS011;32670;51.464;11.964;2024-01-30T03:41:14;7.07;;;2.50;;
46931;SDS011;32670;51.464;11.964;2024-01-30T03:43:40;2.83;;;2.13;;
46931;SDS011;32670;51.464;11.964;2024-01-30T03:46:05;2.97;;;2.30;;
46931;SDS011;32670;51.464;11.964;2024-01-30T03:48:31;7.10;;;2.40;;
46931;SDS011;32670;51.464;11.964;2024-01-30T03:50:56;3.93;;;2.30;;
46931;SDS011;32670;51.464;11.964;2024-01-30T03:53:22;4.10;;;2.27;;
46931;SDS011;32670;51.464;11.964;2024-01-30T03:55:47;5.03;;;2.50;;
46931;SDS011;32670;51.464;11.964;2024-01-30T03:58:12;3.60;;;2.50;;
46931;SDS011;32670;51.464;11.964;2024-01-30T04:00:38;2.67;;;2.33;;
46931;SDS011;32670;51.464;11.964;2024-01-30T04:03:04;2.50;;;2.20;;
46931;SDS011;32670;51.464;11.964;2024-01-30T04:05:30;4.87;;;2.60;;
46931;SDS011;32670;51.464;11.964;2024-01-30T04:07:55;3.40;;;2.40;;
46931;SDS011;32670;51.464;11.964;2024-01-30T04:10:21;3.23;;;2.10;;
46931;SDS011;32670;51.464;11.964;2024-01-30T04:12:46;5.80;;;2.33;;
46931;SDS011;32670;51.464;11.964;2024-01-30T04:15:12;2.40;;;2.20;;
46931;SDS011;32670;51.464;11.964;2024-01-30T04:17:38;2.67;;;2.13;;
46931;SDS011;32670;51.464;11.964;2024-01-30T04:20:04;4.53;;;2.30;;
46931;SDS011;32670;51.464;11.964;2024-01-30T04:22:30;2.50;;;2.30;;
46931;SDS011;32670;51.464;11.964;2024-01-30T04:24:56;3.73;;;2.30;;
46931;SDS011;32670;51.464;11.964;2024-01-30T04:27:21;3.87;;;2.27;;
46931;SDS011;32670;51.464;11.964;2024-01-30T04:29:47;2.47;;;2.13;;
46931;SDS011;32670;51.464;11.964;2024-01-30T04:32:12;2.90;;;2.13;;
46931;SDS011;32670;51.464;11.964;2024-01-30T04:34:38;2.10;;;1.90;;
46931;SDS011;32670;51.464;11.964;2024-01-30T04:37:03;2.50;;;2.17;;
46931;SDS011;32670;51.464;11.964;2024-01-30T04:39:29;6.30;;;2.37;;
46931;SDS011;32670;51.464;11.964;2024-01-30T04:41:54;4.57;;;2.20;;
46931;SDS011;32670;51.464;11.964;2024-01-30T04:44:20;2.77;;;2.27;;
46931;SDS011;32670;51.464;11.964;2024-01-30T04:46:45;3.00;;;2.30;;
46931;SDS011;32670;51.464;11.964;2024-01-30T04:49:11;6.60;;;2.23;;
46931;SDS011;32670;51.464;11.964;2024-01-30T04:51:36;4.47;;;2.07;;
46931;SDS011;32670;51.464;11.964;2024-01-30T04:54:02;2.43;;;2.07;;
46931;SDS011;32670;51.464;11.964;2024-01-30T04:56:27;4.07;;;2.23;;
46931;SDS011;32670;51.464;11.964;2024-01-30T04:58:53;4.53;;;2.13;;
46931;SDS011;32670;51.464;11.964;2024-01-30T05:01:18;5.50;;;2.30;;
46931;SDS011;32670;51.464;11.964;2024-01-30T05:03:44;4.00;;;2.03;;
46931;SDS011;32670;51.464;11.964;2024-01-30T05:06:09;2.50;;;2.20;;
46931;SDS011;32670;51.464;11.964;2024-01-30T05:08:35;2.93;;;2.37;;
46931;SDS011;32670;51.464;11.964;2024-01-30T05:11:04;2.57;;;1.93;;
46931;SDS011;32670;51.464;11.964;2024-01-30T05:13:30;5.23;;;2.30;;
46931;SDS011;32670;51.464;11.964;2024-01-30T05:15:56;10.50;;;2.50;;
46931;SDS011;32670;51.464;11.964;2024-01-30T05:18:22;6.23;;;2.40;;
46931;SDS011;32670;51.464;11.964;2024-01-30T05:20:48;2.73;;;2.20;;
46931;SDS011;32670;51.464;11.964;2024-01-30T05:23:14;4.73;;;2.70;;
46931;SDS011;32670;51.464;11.964;2024-01-30T05:25:40;2.97;;;2.40;;
46931;SDS011;32670;51.464;11.964;2024-01-30T05:28:05;3.80;;;2.37;;
46931;SDS011;32670;51.464;11.964;2024-01-30T05:30:31;3.90;;;2.00;;
46931;SDS011;32670;51.464;11.964;2024-01-30T05:32:56;6.93;;;2.23;;
46931;SDS011;32670;51.464;11.964;2024-01-30T05:35:22;3.30;;;2.30;;
46931;SDS011;32670;51.464;11.964;2024-01-30T05:37:48;6.07;;;2.30;;
46931;SDS011;32670;51.464;11.964;2024-01-30T05:40:14;6.30;;;2.37;;
46931;SDS011;32670;51.464;11.964;2024-01-30T05:42:40;6.93;;;2.40;;
46931;SDS011;32670;51.464;11.964;2024-01-30T05:45:05;3.90;;;2.87;;
46931;SDS011;32670;51.464;11.964;2024-01-30T05:47:31;5.07;;;2.00;;
46931;SDS011;32670;51.464;11.964;2024-01-30T05:49:56;5.17;;;2.00;;
46931;SDS011;32670;51.464;11.964;2024-01-30T05:52:22;2.90;;;2.10;;
46931;SDS011;32670;51.464;11.964;2024-01-30T05:54:47;4.27;;;2.10;;
46931;SDS011;32670;51.464;11.964;2024-01-30T05:57:13;4.57;;;2.43;;
46931;SDS011;32670;51.464;11.964;2024-01-30T05:59:38;8.93;;;2.37;;
46931;SDS011;32670;51.464;11.964;2024-01-30T06:02:04;3.33;;;2.10;;
46931;SDS011;32670;51.464;11.964;2024-01-30T06:04:29;2.53;;;2.10;;
46931;SDS011;32670;51.464;11.964;2024-01-30T06:06:55;2.80;;;2.50;;
46931;SDS011;32670;51.464;11.964;2024-01-30T06:09:20;3.97;;;2.00;;
46931;SDS011;32670;51.464;11.964;2024-01-30T06:11:46;5.30;;;2.37;;
46931;SDS011;32670;51.464;11.964;2024-01-30T06:14:11;2.73;;;2.00;;
46931;SDS011;32670;51.464;11.964;2024-01-30T06:16:37;3.93;;;2.07;;
46931;SDS011;32670;51.464;11.964;2024-01-30T06:19:02;2.73;;;2.20;;
46931;SDS011;32670;51.464;11.964;2024-01-30T06:21:28;3.17;;;2.20;;
46931;SDS011;32670;51.464;11.964;2024-01-30T06:23:53;6.77;;;2.13;;
46931;SDS011;32670;51.464;11.964;2024-01-30T06:26:19;2.43;;;2.00;;
46931;SDS011;32670;51.464;11.964;2024-01-30T06:28:44;2.33;;;1.87;;
46931;SDS011;32670;51.464;11.964;2024-01-30T06:31:09;3.10;;;2.10;;
46931;SDS011;32670;51.464;11.964;2024-01-30T06:33:35;2.37;;;2.00;;
46931;SDS011;32670;51.464;11.964;2024-01-30T06:36:00;2.47;;;2.00;;
46931;SDS011;32670;51.464;11.964;2024-01-30T06:38:26;2.33;;;2.03;;
46931;SDS011;32670;51.464;11.964;2024-01-30T06:40:51;3.27;;;2.33;;
46931;SDS011;32670;51.464;11.964;2024-01-30T06:43:17;5.17;;;2.33;;
46931;SDS011;32670;51.464;11.964;2024-01-30T06:45:42;5.60;;;2.23;;
46931;SDS011;32670;51.464;11.964;2024-01-30T06:48:08;7.73;;;2.33;;
46931;SDS011;32670;51.464;11.964;2024-01-30T06:50:33;3.10;;;2.10;;
46931;SDS011;32670;51.464;11.964;2024-01-30T06:52:59;10.70;;;2.97;;
46931;SDS011;32670;51.464;11.964;2024-01-30T06:55:24;6.17;;;2.70;;
46931;SDS011;32670;51.464;11.964;2024-01-30T06:57:50;3.17;;;2.80;;
46931;SDS011;32670;51.464;11.964;2024-01-30T07:00:15;4.50;;;2.90;;
46931;SDS011;32670;51.464;11.964;2024-01-30T07:02:41;12.40;;;3.00;;
46931;SDS011;32670;51.464;11.964;2024-01-30T07:05:07;3.97;;;3.13;;
46931;SDS011;32670;51.464;11.964;2024-01-30T07:07:32;5.60;;;3.80;;
46931;SDS011;32670;51.464;11.964;2024-01-30T07:09:58;5.37;;;4.00;;
46931;SDS011;32670;51.464;11.964;2024-01-30T07:12:23;5.07;;;3.90;;
46931;SDS011;32670;51.464;11.964;2024-01-30T07:14:50;5.17;;;4.10;;
46931;SDS011;32670;51.464;11.964;2024-01-30T07:17:16;5.40;;;4.03;;
46931;SDS011;32670;51.464;11.964;2024-01-30T07:19:42;4.77;;;3.77;;
46931;SDS011;32670;51.464;11.964;2024-01-30T07:22:07;5.03;;;3.83;;
46931;SDS011;32670;51.464;11.964;2024-01-30T07:24:33;4.40;;;3.93;;
46931;SDS011;32670;51.464;11.964;2024-01-30T07:27:00;4.60;;;3.77;;
46931;SDS011;32670;51.464;11.964;2024-01-30T07:29:25;5.53;;;4.20;;
46931;SDS011;32670;51.464;11.964;2024-01-30T07:31:51;5.30;;;4.03;;
46931;SDS011;32670;51.464;11.964;2024-01-30T07:34:16;4.33;;;3.93;;
46931;SDS011;32670;51.464;11.964;2024-01-30T07:36:42;5.17;;;4.00;;
46931;SDS011;32670;51.464;11.964;2024-01-30T07:39:07;4.20;;;3.80;;
46931;SDS011;32670;51.464;11.964;2024-01-30T07:41:33;4.90;;;4.00;;
46931;SDS011;32670;51.464;11.964;2024-01-30T07:43:58;7.40;;;3.90;;
46931;SDS011;32670;51.464;11.964;2024-01-30T07:46:24;5.80;;;4.10;;
46931;SDS011;32670;51.464;11.964;2024-01-30T07:48:49;7.80;;;4.30;;
46931;SDS011;32670;51.464;11.964;2024-01-30T07:51:15;5.27;;;3.80;;
46931;SDS011;32670;51.464;11.964;2024-01-30T07:53:40;4.73;;;3.80;;
46931;SDS011;32670;51.464;11.964;2024-01-30T07:56:06;4.87;;;4.13;;
46931;SDS011;32670;51.464;11.964;2024-01-30T07:58:32;4.67;;;3.87;;
46931;SDS011;32670;51.464;11.964;2024-01-30T08:00:57;6.00;;;4.07;;
46931;SDS011;32670;51.464;11.964;2024-01-30T08:03:23;5.83;;;3.77;;
46931;SDS011;32670;51.464;11.964;2024-01-30T08:05:49;8.50;;;4.20;;
46931;SDS011;32670;51.464;11.964;2024-01-30T08:08:14;12.33;;;4.33;;
46931;SDS011;32670;51.464;11.964;2024-01-30T08:10:40;4.90;;;3.97;;
46931;SDS011;32670;51.464;11.964;2024-01-30T08:13:05;4.23;;;3.60;;
46931;SDS011;32670;51.464;11.964;2024-01-30T08:15:31;4.87;;;3.87;;
46931;SDS011;32670;51.464;11.964;2024-01-30T08:17:56;8.77;;;4.00;;
46931;SDS011;32670;51.464;11.964;2024-01-30T08:20:24;8.47;;;4.43;;
46931;SDS011;32670;51.464;11.964;2024-01-30T08:22:50;6.70;;;4.10;;
46931;SDS011;32670;51.464;11.964;2024-01-30T08:25:15;6.77;;;3.67;;
46931;SDS011;32670;51.464;11.964;2024-01-30T08:27:41;7.30;;;3.60;;
46931;SDS011;32670;51.464;11.964;2024-01-30T08:30:06;5.17;;;3.90;;
46931;SDS011;32670;51.464;11.964;2024-01-30T08:32:32;4.47;;;3.80;;
46931;SDS011;32670;51.464;11.964;2024-01-30T08:34:58;5.10;;;3.43;;
46931;SDS011;32670;51.464;11.964;2024-01-30T08:37:24;5.00;;;3.80;;
46931;SDS011;32670;51.464;11.964;2024-01-30T08:39:49;4.83;;;3.77;;
46931;SDS011;32670;51.464;11.964;2024-01-30T08:42:15;5.17;;;3.70;;
46931;SDS011;32670;51.464;11.964;2024-01-30T08:44:43;6.20;;;3.80;;
46931;SDS011;32670;51.464;11.964;2024-01-30T08:47:09;5.60;;;3.70;;
46931;SDS011;32670;51.464;11.964;2024-01-30T08:49:34;5.40;;;3.50;;
46931;SDS011;32670;51.464;11.964;2024-01-30T08:52:00;4.30;;;3.20;;
46931;SDS011;32670;51.464;11.964;2024-01-30T08:54:25;4.87;;;3.30;;
46931;SDS011;32670;51.464;11.964;2024-01-30T08:56:50;3.40;;;3.10;;
46931;SDS011;32670;51.464;11.964;2024-01-30T08:59:18;4.53;;;3.43;;
46931;SDS011;32670;51.464;11.964;2024-01-30T09:01:43;3.73;;;3.33;;
46931;SDS011;32670;51.464;11.964;2024-01-30T09:04:11;3.97;;;3.20;;
46931;SDS011;32670;51.464;11.964;2024-01-30T09:06:37;3.40;;;3.10;;
46931;SDS011;32670;51.464;11.964;2024-01-30T09:09:04;3.87;;;3.13;;
46931;SDS011;32670;51.464;11.964;2024-01-30T09:11:30;4.67;;;3.33;;
46931;SDS011;32670;51.464;11.964;2024-01-30T09:13:56;3.77;;;3.30;;
46931;SDS011;32670;51.464;11.964;2024-01-30T09:16:21;3.30;;;3.00;;
46931;SDS011;32670;51.464;11.964;2024-01-30T09:18:47;4.37;;;2.90;;
46931;SDS011;32670;51.464;11.964;2024-01-30T09:21:12;4.73;;;3.40;;
46931;SDS011;32670;51.464;11.964;2024-01-30T09:23:38;3.23;;;2.90;;
46931;SDS011;32670;51.464;11.964;2024-01-30T09:26:03;3.20;;;2.90;;
46931;SDS011;32670;51.464;11.964;2024-01-30T09:28:29;4.07;;;3.23;;
46931;SDS011;32670;51.464;11.964;2024-01-30T09:30:54;3.83;;;2.83;;
46931;SDS011;32670;51.464;11.964;2024-01-30T09:33:19;2.70;;;2.50;;
46931;SDS011;32670;51.464;11.964;2024-01-30T09:35:45;3.27;;;2.97;;
46931;SDS011;32670;51.464;11.964;2024-01-30T09:38:10;4.90;;;3.10;;
46931;SDS011;32670;51.464;11.964;2024-01-30T09:40:36;4.03;;;3.00;;
46931;SDS011;32670;51.464;11.964;2024-01-30T09:43:01;3.73;;;3.37;;
46931;SDS011;32670;51.464;11.964;2024-01-30T09:45:27;3.23;;;2.90;;
46931;SDS011;32670;51.464;11.964;2024-01-30T09:47:52;3.10;;;2.80;;
46931;SDS011;32670;51.464;11.964;2024-01-30T09:50:18;3.53;;;2.80;;
46931;SDS011;32670;51.464;11.964;2024-01-30T09:52:45;4.73;;;2.70;;
46931;SDS011;32670;51.464;11.964;2024-01-30T09:55:12;3.47;;;2.93;;
46931;SDS011;32670;51.464;11.964;2024-01-30T09:57:37;2.60;;;2.40;;
46931;SDS011;32670;51.464;11.964;2024-01-30T10:00:03;2.90;;;2.60;;
46931;SDS011;32670;51.464;11.964;2024-01-30T10:02:34;2.93;;;2.50;;
46931;SDS011;32670;51.464;11.964;2024-01-30T10:05:00;3.43;;;2.53;;
46931;SDS011;32670;51.464;11.964;2024-01-30T10:07:25;2.93;;;2.47;;
46931;SDS011;32670;51.464;11.964;2024-01-30T10:09:51;3.03;;;2.73;;
46931;SDS011;32670;51.464;11.964;2024-01-30T10:12:18;2.60;;;2.40;;
46931;SDS011;32670;51.464;11.964;2024-01-30T10:14:43;3.93;;;3.10;;
46931;SDS011;32670;51.464;11.964;2024-01-30T10:17:09;3.17;;;2.80;;
46931;SDS011;32670;51.464;11.964;2024-01-30T10:19:36;3.10;;;2.80;;
46931;SDS011;32670;51.464;11.964;2024-01-30T10:22:03;2.63;;;2.43;;
46931;SDS011;32670;51.464;11.964;2024-01-30T10:24:29;2.83;;;2.50;;
46931;SDS011;32670;51.464;11.964;2024-01-30T10:26:55;3.17;;;2.50;;
46931;SDS011;32670;51.464;11.964;2024-01-30T10:29:20;3.07;;;2.77;;
46931;SDS011;32670;51.464;11.964;2024-01-30T10:31:57;2.60;;;2.40;;
46931;SDS011;32670;51.464;11.964;2024-01-30T10:34:26;3.23;;;2.83;;
46931;SDS011;32670;51.464;11.964;2024-01-30T10:36:54;2.93;;;2.40;;
46931;SDS011;32670;51.464;11.964;2024-01-30T10:39:37;4.33;;;2.60;;
46931;SDS011;32670;51.464;11.964;2024-01-30T10:42:04;2.70;;;2.50;;
46931;SDS011;32670;51.464;11.964;2024-01-30T10:44:33;2.43;;;2.23;;
46931;SDS011;32670;51.464;11.964;2024-01-30T10:47:05;3.10;;;2.80;;
46931;SDS011;32670;51.464;11.964;2024-01-30T10:49:35;3.10;;;2.57;;
46931;SDS011;32670;51.464;11.964;2024-01-30T10:52:01;2.60;;;2.40;;
46931;SDS011;32670;51.464;11.964;2024-01-30T10:54:30;2.73;;;2.53;;
46931;SDS011;32670;51.464;11.964;2024-01-30T10:56:57;2.80;;;2.60;;
46931;SDS011;32670;51.464;11.964;2024-01-30T10:59:26;2.80;;;2.60;;
46931;SDS011;32670;51.464;11.964;2024-01-30T11:01:52;3.40;;;2.60;;
46931;SDS011;32670;51.464;11.964;2024-01-30T11:04:18;3.50;;;2.50;;
46931;SDS011;32670;51.464;11.964;2024-01-30T11:06:43;2.60;;;2.40;;
46931;SDS011;32670;51.464;11.964;2024-01-30T11:09:12;2.30;;;2.10;;
46931;SDS011;32670;51.464;11.964;2024-01-30T11:11:51;2.57;;;2.37;;
46931;SDS011;32670;51.464;11.964;2024-01-30T11:14:22;2.50;;;2.30;;
46931;SDS011;32670;51.464;11.964;2024-01-30T11:16:48;3.77;;;2.40;;
46931;SDS011;32670;51.464;11.964;2024-01-30T11:19:14;2.63;;;2.30;;
46931;SDS011;32670;51.464;11.964;2024-01-30T11:21:41;2.80;;;2.60;;
46931;SDS011;32670;51.464;11.964;2024-01-30T11:24:07;2.80;;;2.37;;
46931;SDS011;32670;51.464;11.964;2024-01-30T11:26:33;2.70;;;2.50;;
46931;SDS011;32670;51.464;11.964;2024-01-30T11:28:59;2.63;;;2.43;;
46931;SDS011;32670;51.464;11.964;2024-01-30T11:31:29;2.60;;;2.40;;
46931;SDS011;32670;51.464;11.964;2024-01-30T11:33:55;2.17;;;2.00;;
46931;SDS011;32670;51.464;11.964;2024-01-30T11:36:23;2.43;;;2.23;;
46931;SDS011;32670;51.464;11.964;2024-01-30T11:38:51;2.53;;;2.33;;
46931;SDS011;32670;51.464;11.964;2024-01-30T11:41:16;2.57;;;2.37;;
46931;SDS011;32670;51.464;11.964;2024-01-30T11:43:42;2.30;;;2.10;;
46931;SDS011;32670;51.464;11.964;2024-01-30T11:46:15;3.77;;;2.40;;
46931;SDS011;32670;51.464;11.964;2024-01-30T11:48:41;2.50;;;2.30;;
46931;SDS011;32670;51.464;11.964;2024-01-30T11:51:06;2.50;;;2.30;;
46931;SDS011;32670;51.464;11.964;2024-01-30T11:53:32;2.50;;;2.30;;
46931;SDS011;32670;51.464;11.964;2024-01-30T11:55:57;2.30;;;2.20;;
46931;SDS011;32670;51.464;11.964;2024-01-30T11:58:24;2.37;;;2.17;;
46931;SDS011;32670;51.464;11.964;2024-01-30T12:00:56;2.93;;;2.43;;
46931;SDS011;32670;51.464;11.964;2024-01-30T12:03:22;4.77;;;2.37;;
46931;SDS011;32670;51.464;11.964;2024-01-30T12:05:54;4.80;;;2.20;;
46931;SDS011;32670;51.464;11.964;2024-01-30T12:08:26;2.53;;;2.20;;
46931;SDS011;32670;51.464;11.964;2024-01-30T12:10:56;2.33;;;2.13;;
46931;SDS011;32670;51.464;11.964;2024-01-30T12:13:26;3.53;;;2.20;;
46931;SDS011;32670;51.464;11.964;2024-01-30T12:15:52;2.80;;;2.20;;
46931;SDS011;32670;51.464;11.964;2024-01-30T12:18:18;2.37;;;2.10;;
46931;SDS011;32670;51.464;11.964;2024-01-30T12:20:45;2.13;;;2.00;;
46931;SDS011;32670;51.464;11.964;2024-01-30T12:23:11;2.33;;;2.13;;
46931;SDS011;32670;51.464;11.964;2024-01-30T12:25:37;2.33;;;2.10;;
46931;SDS011;32670;51.464;11.964;2024-01-30T12:28:03;2.50;;;2.30;;
46931;SDS011;32670;51.464;11.964;2024-01-30T12:30:29;2.13;;;2.00;;
46931;SDS011;32670;51.464;11.964;2024-01-30T12:32:54;2.40;;;2.20;;
46931;SDS011;32670;51.464;11.964;2024-01-30T12:35:20;2.47;;;2.20;;
46931;SDS011;32670;51.464;11.964;2024-01-30T12:37:46;1.97;;;1.87;;
46931;SDS011;32670;51.464;11.964;2024-01-30T12:40:15;2.20;;;2.00;;
46931;SDS011;32670;51.464;11.964;2024-01-30T12:42:42;2.27;;;2.07;;
46931;SDS011;32670;51.464;11.964;2024-01-30T12:45:10;2.50;;;2.00;;
46931;SDS011;32670;51.464;11.964;2024-01-30T12:47:36;2.57;;;2.37;;
46931;SDS011;32670;51.464;11.964;2024-01-30T12:50:02;2.20;;;2.00;;
46931;SDS011;32670;51.464;11.964;2024-01-30T12:52:28;2.00;;;1.80;;
46931;SDS011;32670;51.464;11.964;2024-01-30T12:54:54;2.37;;;2.17;;
46931;SDS011;32670;51.464;11.964;2024-01-30T12:57:19;2.30;;;2.10;;
46931;SDS011;32670;51.464;11.964;2024-01-30T12:59:45;2.30;;;2.10;;
46931;SDS011;32670;51.464;11.964;2024-01-30T13:02:12;2.77;;;2.57;;
46931;SDS011;32670;51.464;11.964;2024-01-30T13:04:38;2.73;;;2.20;;
46931;SDS011;32670;51.464;11.964;2024-01-30T13:07:04;2.10;;;1.90;;
46931;SDS011;32670;51.464;11.964;2024-01-30T13:09:30;2.47;;;2.27;;
46931;SDS011;32670;51.464;11.964;2024-01-30T13:11:56;2.23;;;2.10;;
46931;SDS011;32670;51.464;11.964;2024-01-30T13:14:22;2.37;;;2.17;;
46931;SDS011;32670;51.464;11.964;2024-01-30T13:16:48;3.13;;;2.20;;
46931;SDS011;32670;51.464;11.964;2024-01-30T13:19:14;3.00;;;2.00;;
46931;SDS011;32670;51.464;11.964;2024-01-30T13:21:39;4.67;;;2.37;;
46931;SDS011;32670;51.464;11.964;2024-01-30T13:24:05;2.27;;;2.07;;
46931;SDS011;32670;51.464;11.964;2024-01-30T13:26:33;2.23;;;2.03;;
46931;SDS011;32670;51.464;11.964;2024-01-30T13:28:59;3.03;;;2.20;;
46931;SDS011;32670;51.464;11.964;2024-01-30T13:31:24;3.50;;;2.33;;
46931;SDS011;32670;51.464;11.964;2024-01-30T13:33:50;2.30;;;2.13;;
46931;SDS011;32670;51.464;11.964;2024-01-30T13:36:15;2.17;;;2.00;;
46931;SDS011;32670;51.464;11.964;2024-01-30T13:38:41;2.50;;;2.20;;
46931;SDS011;32670;51.464;11.964;2024-01-30T13:41:06;2.30;;;2.20;;
46931;SDS011;32670;51.464;11.964;2024-01-30T13:43:32;2.13;;;2.00;;
46931;SDS011;32670;51.464;11.964;2024-01-30T13:45:57;2.50;;;2.10;;
46931;SDS011;32670;51.464;11.964;2024-01-30T13:48:23;2.27;;;2.07;;
46931;SDS011;32670;51.464;11.964;2024-01-30T13:50:49;2.23;;;2.03;;
46931;SDS011;32670;51.464;11.964;2024-01-30T13:53:14;2.17;;;2.00;;
46931;SDS011;32670;51.464;11.964;2024-01-30T13:55:40;2.60;;;2.10;;
46931;SDS011;32670;51.464;11.964;2024-01-30T13:58:06;2.40;;;2.20;;
46931;SDS011;32670;51.464;11.964;2024-01-30T14:00:32;2.27;;;2.07;;
46931;SDS011;32670;51.464;11.964;2024-01-30T14:02:58;2.03;;;1.93;;
46931;SDS011;32670;51.464;11.964;2024-01-30T14:05:24;2.10;;;2.00;;
46931;SDS011;32670;51.464;11.964;2024-01-30T14:07:50;2.10;;;1.90;;
46931;SDS011;32670;51.464;11.964;2024-01-30T14:10:17;2.70;;;2.17;;
46931;SDS011;32670;51.464;11.964;2024-01-30T14:12:43;2.57;;;2.00;;
46931;SDS011;32670;51.464;11.964;2024-01-30T14:15:09;2.00;;;1.90;;
46931;SDS011;32670;51.464;11.964;2024-01-30T14:17:36;2.07;;;1.90;;
46931;SDS011;32670;51.464;11.964;2024-01-30T14:20:02;2.20;;;2.00;;
46931;SDS011;32670;51.464;11.964;2024-01-30T14:22:29;1.80;;;1.70;;
46931;SDS011;32670;51.464;11.964;2024-01-30T14:24:54;2.00;;;1.80;;
46931;SDS011;32670;51.464;11.964;2024-01-30T14:27:21;2.17;;;2.00;;